Decimomannu, Italia

07:05 AM CEST del 28 Agosto 2014 (GMT +0200)
SestuMeteo | Change Station
CLOSE
Current Station
Stazione meteo personale
Location: Sestu, SARDEGNA
Altitudine: 183 ft
Stazioni meteo nelle vicinanze

Alt. 183 ft 39.31 °N, 9.08 °E | Updated 3 seconds ago

Clear
Sereno
69.2 °F
Sembra 69.2 °F
N
1.2
Vento Variabile Vento da NNO
Gusts 3.5 mph

Oggi
Massima -- | Minima -- °F
--% Possibilità di precip.
Ieri
Massima -- | Minima -- °F
Precip. -- in
6:48 AM 8:01 PM
Luna crescente, 6% visible
Pressione 29.95 in
Visibilità -9999.0 miglia
Nuvole
Punto di rugiada 67 °F
Umidità 93%
Piovosità 0.00 in
Spessore del manto nevoso Non disponibile.
Raggi UV 0.0 fuori da 12
Polline Non disponibile.
Qualità dell'aria Non disponibile.
Flu Activity Non disponibile.
METAR LIEE 280450Z 32007KT CAVOK 21/21 Q1014

More Conditions Fewer Conditions

Pressione 29.95 in
Visibilità -9999.0 miglia
Nuvole
Punto di rugiada 67 °F
Umidità 93%
Piovosità 0.00 in
Spessore del manto nevoso Non disponibile.
Raggi UV 0.0 fuori da 12
Polline Non disponibile.
Qualità dell'aria Non disponibile.
Flu Activity Non disponibile.
METAR LIEE 280450Z 32007KT CAVOK 21/21 Q1014

More Conditions Fewer Conditions

10-Day Weather Forecast

Almanac

Astronomia

Aug. 28, 2014 Alba Tramonto
Ora attuale 06:48 CEST 20:01 CEST
Crepuscolo civile 06:20 CEST 20:29 CEST
Crepuscolo nautico 05:47 CEST 21:02 CEST
Crepuscolo astronomico 05:12 CEST 21:36 CEST
Luna 09:24 CEST 21:17 CEST
Estensione della luce visibile 14h 08m
Lunghezza del giorno
13h 12m
Tomorrow will be 2m 26s shorter.
Luna crescente, 6% of the Moon is Illuminated
Oggi
Luna crescente
Set 2
Primo quarto
Set 8
Luna piena
Set 15
Ultimo quarto
Set 24
Nuovo

Minime e massime di ieri

Massime Regione Minime Regione

Community

WunderPhotos

Upload Photos

1,747,908 foto caricate!

Nearby

Qualità dell'aria

Not available.

Profondità neve

Not available.

Attività sismica

Città  Distanza Mag. Data & Ora
Non sono state riportate attività sismiche nelle vicinanze.
Minimo Magnitudo Mostrato è 2.5.

Temperature delle acque costiere

Località Temperatura
Nessun dato dalle stazioni

Stazioni meteo nelle vicinanze